createdAt,value
2019-04-21T00:00:27.549Z,11.82
2019-04-21T00:02:32.004Z,11.78
2019-04-21T00:04:40.772Z,11.69
2019-04-21T00:06:50.323Z,11.71
2019-04-21T00:08:48.416Z,11.75
2019-04-21T00:10:51.615Z,11.60
2019-04-21T00:12:40.549Z,11.57
2019-04-21T00:14:39.561Z,11.50
2019-04-21T00:16:34.763Z,11.41
2019-04-21T00:18:30.159Z,11.47
2019-04-21T00:20:32.256Z,11.46
2019-04-21T00:22:37.736Z,11.46
2019-04-21T00:24:41.323Z,11.50
2019-04-21T00:26:45.931Z,11.44
2019-04-21T00:28:51.947Z,11.32
2019-04-21T00:30:47.046Z,11.31
2019-04-21T00:32:39.169Z,11.24
2019-04-21T00:34:26.267Z,11.12
2019-04-21T00:36:33.390Z,11.13
2019-04-21T00:39:02.994Z,11.09
2019-04-21T00:40:52.125Z,10.90
2019-04-21T00:42:38.906Z,10.84
2019-04-21T00:44:33.005Z,10.81
2019-04-21T00:46:40.319Z,10.81
2019-04-21T00:48:47.668Z,10.86
2019-04-21T00:51:03.994Z,10.75
2019-04-21T00:52:58.166Z,10.80
2019-04-21T00:54:58.568Z,10.81
2019-04-21T00:56:49.680Z,10.81
2019-04-21T00:58:48.643Z,10.80
2019-04-21T01:00:49.600Z,10.80
2019-04-21T01:02:49.965Z,10.85
2019-04-21T01:04:44.795Z,10.95
2019-04-21T01:06:48.296Z,10.88
2019-04-21T01:08:46.755Z,10.91
2019-04-21T01:10:38.103Z,10.89
2019-04-21T01:12:53.580Z,10.79
2019-04-21T01:14:43.206Z,10.84
2019-04-21T01:16:54.128Z,10.95
2019-04-21T01:18:45.950Z,10.96
2019-04-21T01:20:26.240Z,10.98
2019-04-21T01:22:26.886Z,10.86
2019-04-21T01:24:32.483Z,10.85
2019-04-21T01:26:39.311Z,10.93
2019-04-21T01:28:39.930Z,10.88
2019-04-21T01:30:50.636Z,10.85
2019-04-21T01:32:51.294Z,10.85
2019-04-21T01:34:49.666Z,10.93
2019-04-21T01:36:45.474Z,10.82
2019-04-21T01:38:48.263Z,10.90
2019-04-21T01:40:44.978Z,10.88
2019-04-21T01:44:48.003Z,10.79
2019-04-21T01:46:39.500Z,10.83
2019-04-21T01:48:45.891Z,10.83
2019-04-21T01:50:42.367Z,10.66
2019-04-21T01:52:48.524Z,10.72
2019-04-21T01:54:49.857Z,10.61
2019-04-21T01:56:47.895Z,10.63
2019-04-21T01:58:40.216Z,10.55
2019-04-21T02:00:39.016Z,10.56
2019-04-21T02:02:49.241Z,10.62
2019-04-21T02:04:47.345Z,10.46
2019-04-21T02:06:45.546Z,10.52
2019-04-21T02:08:36.208Z,10.53
2019-04-21T02:14:45.642Z,10.24
2019-04-21T02:16:40.460Z,10.24
2019-04-21T02:18:43.769Z,10.33
2019-04-21T02:20:40.291Z,10.20
2019-04-21T02:23:06.716Z,10.13
2019-04-21T02:24:42.737Z,10.05
2019-04-21T02:26:45.668Z,10.15
2019-04-21T02:28:56.046Z,10.10
2019-04-21T02:33:03.994Z,10.22
2019-04-21T02:35:06.390Z,10.09
2019-04-21T02:37:17.615Z,10.15
2019-04-21T02:40:51.370Z,10.31
2019-04-21T02:43:07.328Z,10.29
2019-04-21T02:46:48.500Z,10.09
2019-04-21T02:49:04.140Z,10.03
2019-04-21T02:50:52.930Z,10.12
2019-04-21T02:52:58.131Z,10.07
2019-04-21T02:54:54.126Z,10.09
2019-04-21T02:57:04.663Z,9.95
2019-04-21T02:58:59.854Z,9.85
2019-04-21T03:00:55.477Z,9.45
2019-04-21T03:02:54.497Z,9.36
2019-04-21T03:07:07.037Z,9.09
2019-04-21T03:09:01.204Z,8.98
2019-04-21T03:10:59.293Z,8.85
2019-04-21T03:12:43.895Z,8.71
2019-04-21T03:16:47.224Z,8.57
2019-04-21T03:19:00.236Z,8.47
2019-04-21T03:22:59.963Z,8.30
2019-04-21T03:25:21.472Z,8.22
2019-04-21T03:31:25.237Z,7.96
2019-04-21T03:33:23.750Z,8.03
2019-04-21T03:35:33.961Z,8.03
2019-04-21T03:37:19.083Z,7.88
2019-04-21T03:41:00.954Z,7.77
2019-04-21T03:42:59.781Z,7.69
2019-04-21T03:44:59.124Z,7.80
2019-04-21T03:46:55.673Z,7.61
2019-04-21T03:49:04.954Z,7.49
2019-04-21T03:52:48.220Z,7.50
2019-04-21T03:55:25.173Z,7.48
2019-04-21T03:57:11.389Z,7.44
2019-04-21T03:58:58.463Z,7.35
2019-04-21T04:03:13.745Z,7.25
2019-04-21T04:07:06.192Z,7.02
2019-04-21T04:11:04.715Z,7.00
2019-04-21T04:12:57.210Z,6.97
2019-04-21T04:14:55.548Z,6.93
2019-04-21T04:17:04.749Z,6.85
2019-04-21T04:19:05.491Z,6.96
2019-04-21T04:22:48.194Z,6.95
2019-04-21T04:27:02.492Z,6.90
2019-04-21T04:29:08.870Z,6.97
2019-04-21T04:30:45.866Z,6.86
2019-04-21T04:37:05.946Z,6.81
2019-04-21T04:39:02.308Z,6.89
2019-04-21T04:40:55.977Z,6.94
2019-04-21T04:42:56.849Z,7.03
2019-04-21T04:45:08.329Z,6.91
2019-04-21T04:47:07.345Z,6.98
2019-04-21T04:49:06.060Z,7.07
2019-04-21T04:52:51.197Z,7.29
2019-04-21T04:54:55.173Z,7.65
2019-04-21T04:56:53.740Z,7.90
2019-04-21T05:01:08.612Z,8.49
2019-04-21T05:02:55.994Z,8.66
2019-04-21T05:05:07.047Z,9.08
2019-04-21T05:07:00.161Z,9.38
2019-04-21T05:11:08.134Z,9.99
2019-04-21T05:12:51.207Z,10.05
2019-04-21T05:14:46.632Z,10.29
2019-04-21T05:16:52.987Z,10.50
2019-04-21T05:19:07.993Z,10.69
2019-04-21T05:21:09.055Z,11.00
2019-04-21T05:22:48.953Z,11.29
2019-04-21T05:24:44.094Z,11.50
2019-04-21T05:26:43.370Z,11.73
2019-04-21T05:28:43.244Z,11.98
2019-04-21T05:30:48.999Z,12.14
2019-04-21T05:34:42.998Z,12.59
2019-04-21T05:36:44.520Z,12.74
2019-04-21T05:38:37.941Z,12.97
2019-04-21T05:42:39.630Z,13.53
2019-04-21T05:44:56.351Z,13.96
2019-04-21T05:48:46.931Z,14.57
2019-04-21T05:50:44.135Z,14.82
2019-04-21T05:54:44.038Z,14.93
2019-04-21T05:56:51.605Z,14.98
2019-04-21T05:58:43.665Z,15.29
2019-04-21T06:01:06.464Z,15.57
2019-04-21T06:02:53.451Z,15.87
2019-04-21T06:05:13.929Z,16.21
2019-04-21T06:08:49.925Z,16.92
2019-04-21T06:10:43.288Z,17.36
2019-04-21T06:12:52.184Z,17.65
2019-04-21T06:14:43.963Z,17.83
2019-04-21T06:16:43.912Z,17.98
2019-04-21T06:20:46.656Z,18.45
2019-04-21T06:22:53.211Z,18.71
2019-04-21T06:25:11.522Z,19.37
2019-04-21T06:28:46.561Z,20.03
2019-04-21T06:30:59.255Z,19.98
2019-04-21T06:32:50.603Z,19.69
2019-04-21T06:35:08.350Z,19.70
2019-04-21T06:36:42.285Z,19.75
2019-04-21T06:38:59.638Z,20.16
2019-04-21T06:40:48.379Z,20.33
2019-04-21T06:42:50.274Z,20.54
2019-04-21T06:44:51.225Z,20.87
2019-04-21T06:46:44.952Z,21.14
2019-04-21T06:48:58.357Z,20.85
2019-04-21T06:50:52.919Z,20.46
2019-04-21T06:53:00.752Z,20.16
2019-04-21T06:54:44.685Z,20.37
2019-04-21T06:56:40.945Z,20.41
2019-04-21T06:58:53.462Z,20.53
2019-04-21T07:00:42.421Z,20.64
2019-04-21T07:02:51.901Z,20.58
2019-04-21T07:04:50.243Z,20.69
2019-04-21T07:06:44.113Z,20.80
2019-04-21T07:08:53.232Z,20.34
2019-04-21T07:12:45.294Z,20.34
2019-04-21T07:14:50.025Z,20.50
2019-04-21T07:16:51.260Z,20.51
2019-04-21T07:18:55.577Z,20.47
2019-04-21T07:20:50.463Z,20.30
2019-04-21T07:22:50.820Z,20.12
2019-04-21T07:24:43.432Z,20.27
2019-04-21T07:26:51.551Z,20.34
2019-04-21T07:28:56.239Z,20.39
2019-04-21T07:30:51.832Z,20.38
2019-04-21T07:32:50.804Z,20.31
2019-04-21T07:38:45.662Z,20.22
2019-04-21T07:40:41.747Z,20.13
2019-04-21T07:42:38.032Z,20.15
2019-04-21T07:44:44.777Z,20.10
2019-04-21T07:46:41.724Z,20.18
2019-04-21T07:48:50.070Z,20.06
2019-04-21T07:50:47.465Z,20.13
2019-04-21T07:52:42.626Z,20.11
2019-04-21T07:54:56.819Z,20.19
2019-04-21T07:56:32.964Z,20.13
2019-04-21T08:00:49.329Z,20.10
2019-04-21T08:02:46.470Z,20.04
2019-04-21T08:05:02.870Z,19.77
2019-04-21T08:06:47.806Z,19.64
2019-04-21T08:10:47.466Z,19.75
2019-04-21T08:12:41.981Z,19.79
2019-04-21T08:14:43.578Z,20.06
2019-04-21T08:16:45.025Z,20.36
2019-04-21T08:18:48.684Z,20.45
2019-04-21T08:20:46.301Z,20.42
2019-04-21T08:24:51.882Z,20.69
2019-04-21T08:26:45.200Z,20.58
2019-04-21T08:28:49.551Z,20.38
2019-04-21T08:30:43.036Z,20.24
2019-04-21T08:32:51.492Z,20.40
2019-04-21T08:35:02.791Z,20.32
2019-04-21T08:36:47.745Z,20.48
2019-04-21T08:38:51.519Z,20.29
2019-04-21T08:40:45.732Z,20.44
2019-04-21T08:42:45.051Z,20.73
2019-04-21T08:44:47.854Z,21.19
2019-04-21T08:46:49.226Z,21.75
2019-04-21T08:48:52.618Z,21.61
2019-04-21T08:50:47.593Z,21.61
2019-04-21T08:52:50.887Z,21.59
2019-04-21T08:54:49.649Z,21.71
2019-04-21T08:56:49.568Z,21.78
2019-04-21T09:02:47.542Z,22.11
2019-04-21T09:04:50.731Z,22.31
2019-04-21T09:06:54.252Z,22.31
2019-04-21T09:08:46.167Z,22.23
2019-04-21T09:10:49.289Z,22.21
2019-04-21T09:12:46.438Z,22.52
2019-04-21T09:14:41.490Z,22.82
2019-04-21T09:16:44.042Z,22.44
2019-04-21T09:18:40.390Z,21.85
2019-04-21T09:20:50.866Z,21.80
2019-04-21T09:22:45.705Z,21.70
2019-04-21T09:26:41.222Z,21.68
2019-04-21T09:28:39.522Z,21.59
2019-04-21T09:30:30.069Z,21.82
2019-04-21T09:32:30.768Z,22.07
2019-04-21T09:34:33.229Z,22.27
2019-04-21T09:36:35.093Z,22.62
2019-04-21T09:38:32.855Z,22.59
2019-04-21T09:40:32.667Z,22.40
2019-04-21T09:42:34.808Z,22.26
2019-04-21T09:44:32.901Z,22.21
2019-04-21T09:46:27.614Z,22.44
2019-04-21T09:48:29.799Z,22.51
2019-04-21T09:50:27.235Z,22.93
2019-04-21T09:52:36.112Z,23.10
2019-04-21T09:54:31.269Z,23.37
2019-04-21T09:56:37.402Z,23.10
2019-04-21T09:58:32.946Z,22.67
2019-04-21T10:00:29.333Z,22.59
2019-04-21T10:02:34.339Z,22.59
2019-04-21T10:04:26.785Z,22.74
2019-04-21T10:06:28.234Z,22.62
2019-04-21T10:08:27.281Z,22.75
2019-04-21T10:10:27.510Z,22.54
2019-04-21T10:12:26.830Z,22.37
2019-04-21T10:14:27.074Z,22.30
2019-04-21T10:16:27.079Z,22.45
2019-04-21T10:18:27.326Z,22.76
2019-04-21T10:20:26.915Z,23.01
2019-04-21T10:22:26.906Z,23.26
2019-04-21T10:24:26.961Z,23.19
2019-04-21T10:26:26.833Z,23.46
2019-04-21T10:28:27.045Z,23.48
2019-04-21T10:30:26.910Z,23.43
2019-04-21T10:32:28.103Z,23.80
2019-04-21T10:34:27.381Z,23.64
2019-04-21T10:38:33.242Z,23.30
2019-04-21T10:40:28.329Z,23.10
2019-04-21T10:42:27.036Z,23.19
2019-04-21T10:44:27.318Z,23.31
2019-04-21T10:46:28.816Z,23.28
2019-04-21T10:48:28.398Z,23.29
2019-04-21T10:50:27.073Z,22.90
2019-04-21T10:52:28.930Z,22.82
2019-04-21T10:54:37.893Z,23.04
2019-04-21T10:56:29.777Z,23.23
2019-04-21T10:58:26.918Z,23.39
2019-04-21T11:00:28.075Z,23.28
2019-04-21T11:02:27.041Z,23.05
2019-04-21T11:04:31.367Z,23.01
2019-04-21T11:06:26.744Z,23.33
2019-04-21T11:08:32.258Z,23.58
2019-04-21T11:10:27.769Z,23.63
2019-04-21T11:12:27.820Z,23.57
2019-04-21T11:14:27.201Z,23.50
2019-04-21T11:16:27.065Z,23.63
2019-04-21T11:18:28.124Z,23.64
2019-04-21T11:20:27.045Z,23.88
2019-04-21T11:22:28.484Z,24.08
2019-04-21T11:24:27.118Z,23.73
2019-04-21T11:26:27.610Z,23.54
2019-04-21T11:28:27.208Z,23.28
2019-04-21T11:30:27.499Z,23.33
2019-04-21T11:32:27.358Z,23.49
2019-04-21T11:34:27.285Z,24.10
2019-04-21T11:36:27.186Z,24.21
2019-04-21T11:38:30.022Z,24.18
2019-04-21T11:40:27.690Z,23.79
2019-04-21T11:42:27.901Z,23.80
2019-04-21T11:44:27.050Z,23.88
2019-04-21T11:46:28.550Z,24.16
2019-04-21T11:48:27.934Z,24.32
2019-04-21T11:50:26.906Z,24.15
2019-04-21T11:52:27.183Z,24.12
2019-04-21T11:54:27.049Z,23.97
2019-04-21T11:56:27.360Z,24.06
2019-04-21T11:58:27.810Z,24.19
2019-04-21T12:00:27.360Z,24.60
2019-04-21T12:02:27.645Z,24.84
2019-04-21T12:04:27.507Z,25.28
2019-04-21T12:06:32.212Z,24.92
2019-04-21T12:08:32.399Z,24.86
2019-04-21T12:10:27.197Z,25.24
2019-04-21T12:12:27.499Z,25.21
2019-04-21T12:14:28.039Z,25.30
2019-04-21T12:16:28.671Z,25.73
2019-04-21T12:18:28.599Z,25.49
2019-04-21T12:20:28.474Z,25.16
2019-04-21T12:22:29.986Z,25.22
2019-04-21T12:24:29.651Z,25.28
2019-04-21T12:26:28.275Z,25.24
2019-04-21T12:28:28.040Z,25.35
2019-04-21T12:30:27.288Z,25.44
2019-04-21T12:32:28.280Z,25.36
2019-04-21T12:34:28.014Z,25.18
2019-04-21T12:36:27.573Z,25.08
2019-04-21T12:38:36.361Z,25.10
2019-04-21T12:40:28.418Z,25.22
2019-04-21T12:42:27.127Z,24.73
2019-04-21T12:44:27.497Z,24.38
2019-04-21T12:46:27.673Z,24.22
2019-04-21T12:48:28.182Z,24.14
2019-04-21T12:50:27.785Z,24.42
2019-04-21T12:52:27.481Z,24.79
2019-04-21T12:54:27.900Z,24.91
2019-04-21T12:56:27.576Z,25.28
2019-04-21T12:58:26.941Z,25.23
2019-04-21T13:00:27.164Z,24.96
2019-04-21T13:02:27.483Z,25.18
2019-04-21T13:04:28.035Z,25.11
2019-04-21T13:06:27.736Z,25.26
2019-04-21T13:08:27.153Z,25.42
2019-04-21T13:10:26.925Z,25.35
2019-04-21T13:12:27.213Z,24.85
2019-04-21T13:14:27.224Z,24.95
2019-04-21T13:16:27.646Z,25.20
2019-04-21T13:18:27.250Z,25.33
2019-04-21T13:20:27.443Z,25.37
2019-04-21T13:22:27.963Z,25.69
2019-04-21T13:24:27.100Z,25.72
2019-04-21T13:26:32.773Z,25.81
2019-04-21T13:28:28.263Z,25.91
2019-04-21T13:30:28.403Z,25.73
2019-04-21T13:32:27.225Z,25.60
2019-04-21T13:34:28.320Z,25.90
2019-04-21T13:36:27.637Z,25.87
2019-04-21T13:39:45.827Z,25.80
2019-04-21T13:41:27.189Z,25.64
2019-04-21T13:43:17.031Z,25.51
2019-04-21T13:45:16.288Z,25.36
2019-04-21T13:47:16.816Z,25.62
2019-04-21T13:49:17.216Z,25.99
2019-04-21T13:51:17.371Z,26.23
2019-04-21T13:53:16.679Z,26.36
2019-04-21T13:55:15.945Z,26.56
2019-04-21T13:57:16.674Z,26.15
2019-04-21T13:59:16.099Z,25.77
2019-04-21T14:01:16.055Z,25.89
2019-04-21T14:03:16.762Z,25.77
2019-04-21T14:05:15.995Z,25.70
2019-04-21T14:07:16.434Z,25.94
2019-04-21T14:09:16.127Z,25.89
2019-04-21T14:11:15.742Z,26.07
2019-04-21T14:13:16.441Z,26.08
2019-04-21T14:15:16.016Z,25.92
2019-04-21T14:17:17.012Z,25.75
2019-04-21T14:19:16.950Z,25.44
2019-04-21T14:21:16.046Z,25.61
2019-04-21T14:23:23.102Z,25.90
2019-04-21T14:25:17.364Z,26.33
2019-04-21T14:27:16.331Z,26.52
2019-04-21T14:29:17.468Z,26.57
2019-04-21T14:31:16.605Z,26.69
2019-04-21T14:33:16.237Z,26.79
2019-04-21T14:35:16.693Z,27.00
2019-04-21T14:37:17.042Z,26.80
2019-04-21T14:39:16.695Z,26.39
2019-04-21T14:41:15.950Z,25.92
2019-04-21T14:43:16.454Z,25.30
2019-04-21T14:45:16.819Z,25.23
2019-04-21T14:47:15.801Z,25.33
2019-04-21T14:49:17.240Z,25.30
2019-04-21T14:51:16.832Z,25.37
2019-04-21T14:53:16.100Z,25.51
2019-04-21T14:55:16.667Z,25.42
2019-04-21T14:57:15.808Z,25.86
2019-04-21T14:59:17.116Z,25.94
2019-04-21T15:01:15.901Z,25.77
2019-04-21T15:03:16.091Z,25.36
2019-04-21T15:05:15.921Z,24.85
2019-04-21T15:07:17.102Z,24.66
2019-04-21T15:09:16.074Z,24.81
2019-04-21T15:11:16.111Z,24.89
2019-04-21T15:13:17.106Z,25.07
2019-04-21T15:15:16.103Z,25.24
2019-04-21T15:17:18.808Z,25.50
2019-04-21T15:19:16.843Z,25.80
2019-04-21T15:21:17.360Z,26.10
2019-04-21T15:23:16.230Z,26.02
2019-04-21T15:25:16.451Z,26.24
2019-04-21T15:27:16.862Z,26.15
2019-04-21T15:29:17.081Z,26.05
2019-04-21T15:31:20.454Z,25.98
2019-04-21T15:33:16.363Z,25.35
2019-04-21T15:35:17.387Z,25.41
2019-04-21T15:37:17.783Z,25.23
2019-04-21T15:39:16.082Z,25.38
2019-04-21T15:41:16.430Z,25.55
2019-04-21T15:43:15.942Z,25.71
2019-04-21T15:45:16.748Z,25.67
2019-04-21T15:47:16.238Z,25.78
2019-04-21T15:49:17.458Z,25.84
2019-04-21T15:51:16.059Z,25.74
2019-04-21T15:53:16.073Z,25.43
2019-04-21T15:55:16.800Z,25.19
2019-04-21T15:57:15.894Z,25.23
2019-04-21T15:59:16.680Z,25.20
2019-04-21T16:01:16.459Z,25.15
2019-04-21T16:03:16.546Z,25.15
2019-04-21T16:05:16.932Z,24.89
2019-04-21T16:07:16.168Z,24.86
2019-04-21T16:09:20.976Z,24.96
2019-04-21T16:11:15.918Z,25.18
2019-04-21T16:13:16.200Z,25.12
2019-04-21T16:15:16.665Z,25.35
2019-04-21T16:17:17.075Z,25.76
2019-04-21T16:19:16.549Z,25.84
2019-04-21T16:21:16.146Z,25.90
2019-04-21T16:23:15.995Z,25.87
2019-04-21T16:25:17.048Z,25.86
2019-04-21T16:27:17.413Z,25.82
2019-04-21T16:29:17.236Z,25.64
2019-04-21T16:31:16.365Z,25.32
2019-04-21T16:33:16.140Z,25.20
2019-04-21T16:35:16.921Z,25.21
2019-04-21T16:37:17.320Z,25.26
2019-04-21T16:39:16.044Z,25.07
2019-04-21T16:41:16.184Z,24.95
2019-04-21T16:43:16.387Z,25.18
2019-04-21T16:45:16.903Z,24.99
2019-04-21T16:47:17.244Z,24.79
2019-04-21T16:49:16.222Z,24.61
2019-04-21T16:51:15.987Z,24.31
2019-04-21T16:53:16.524Z,24.13
2019-04-21T16:55:16.894Z,23.92
2019-04-21T16:57:17.563Z,23.48
2019-04-21T16:59:16.759Z,23.29
2019-04-21T17:01:17.943Z,23.28
2019-04-21T17:03:16.630Z,22.82
2019-04-21T17:05:16.267Z,22.78
2019-04-21T17:07:16.073Z,22.67
2019-04-21T17:09:16.738Z,22.46
2019-04-21T17:11:20.587Z,22.34
2019-04-21T17:13:16.074Z,22.24
2019-04-21T17:15:33.794Z,22.09
2019-04-21T17:17:37.259Z,22.03
2019-04-21T17:19:26.970Z,22.09
2019-04-21T17:21:16.757Z,21.87
2019-04-21T17:23:17.551Z,21.80
2019-04-21T17:25:18.146Z,21.75
2019-04-21T17:27:17.467Z,21.70
2019-04-21T17:29:16.825Z,21.57
2019-04-21T17:31:16.467Z,21.46
2019-04-21T17:33:22.688Z,21.56
2019-04-21T17:35:16.649Z,21.28
2019-04-21T17:37:17.239Z,21.29
2019-04-21T17:39:16.530Z,21.09
2019-04-21T17:41:25.665Z,21.07
2019-04-21T17:43:18.070Z,20.80
2019-04-21T17:45:17.171Z,20.84
2019-04-21T17:47:22.500Z,20.88
2019-04-21T17:49:17.019Z,20.60
2019-04-21T17:51:17.249Z,20.52
2019-04-21T17:53:26.550Z,20.39
2019-04-21T17:55:25.057Z,20.32
2019-04-21T17:57:36.711Z,20.19
2019-04-21T18:01:38.546Z,20.07
2019-04-21T18:03:46.190Z,20.00
2019-04-21T18:05:32.169Z,19.65
2019-04-21T18:07:34.925Z,19.72
2019-04-21T18:09:44.148Z,19.44
2019-04-21T18:11:37.171Z,19.20
2019-04-21T18:13:20.034Z,19.14
2019-04-21T18:15:29.013Z,19.04
2019-04-21T18:17:16.737Z,18.82
2019-04-21T18:19:19.401Z,18.71
2019-04-21T18:21:16.761Z,18.40
2019-04-21T18:23:33.623Z,18.29
2019-04-21T18:25:28.395Z,18.15
2019-04-21T18:27:17.521Z,17.94
2019-04-21T18:29:17.833Z,17.78
2019-04-21T18:31:16.731Z,17.64
2019-04-21T18:33:23.374Z,17.42
2019-04-21T18:35:17.766Z,17.42
2019-04-21T18:37:27.137Z,17.15
2019-04-21T18:39:34.032Z,17.02
2019-04-21T18:41:17.394Z,16.90
2019-04-21T18:43:48.586Z,16.78
2019-04-21T18:45:53.334Z,16.70
2019-04-21T18:47:31.527Z,16.53
2019-04-21T18:49:17.356Z,16.40
2019-04-21T18:51:20.326Z,16.29
2019-04-21T18:53:34.080Z,16.13
2019-04-21T18:55:25.022Z,15.94
2019-04-21T18:57:26.537Z,15.87
2019-04-21T18:59:20.013Z,15.80
2019-04-21T19:01:22.833Z,15.63
2019-04-21T19:03:25.356Z,15.60
2019-04-21T19:05:21.213Z,15.49
2019-04-21T19:07:25.225Z,15.46
2019-04-21T19:09:55.912Z,15.49
2019-04-21T19:11:32.905Z,15.38
2019-04-21T19:13:47.818Z,15.36
2019-04-21T19:15:34.243Z,15.22
2019-04-21T19:19:56.394Z,15.11
2019-04-21T19:21:28.305Z,15.06
2019-04-21T19:23:45.677Z,14.96
2019-04-21T19:27:32.187Z,15.00
2019-04-21T19:29:31.703Z,14.88
2019-04-21T19:31:39.971Z,14.79
2019-04-21T19:33:29.731Z,14.74
2019-04-21T19:35:17.354Z,14.65
2019-04-21T19:37:20.908Z,14.58
2019-04-21T19:41:32.408Z,14.50
2019-04-21T19:43:35.465Z,14.31
2019-04-21T19:45:32.190Z,14.24
2019-04-21T19:47:37.171Z,14.26
2019-04-21T19:49:40.069Z,14.16
2019-04-21T19:51:31.407Z,14.02
2019-04-21T19:53:29.632Z,14.11
2019-04-21T19:55:18.106Z,13.91
2019-04-21T19:57:16.726Z,13.95
2019-04-21T19:59:20.012Z,13.75
2019-04-21T20:01:17.350Z,13.69
2019-04-21T20:03:16.533Z,13.50
2019-04-21T20:05:29.758Z,13.49
2019-04-21T20:07:26.280Z,13.35
2019-04-21T20:09:32.174Z,13.27
2019-04-21T20:11:34.732Z,13.14
2019-04-21T20:13:48.739Z,13.07
2019-04-21T20:15:41.952Z,13.04
2019-04-21T20:17:35.160Z,13.04
2019-04-21T20:19:17.915Z,12.95
2019-04-21T20:21:16.771Z,12.80
2019-04-21T20:23:22.815Z,12.74
2019-04-21T20:25:19.980Z,12.63
2019-04-21T20:27:24.147Z,12.47
2019-04-21T20:29:37.745Z,12.57
2019-04-21T20:31:31.560Z,12.45
2019-04-21T20:33:48.838Z,12.43
2019-04-21T20:35:42.976Z,12.48
2019-04-21T20:37:31.740Z,12.51
2019-04-21T20:39:23.229Z,12.59
2019-04-21T20:41:26.917Z,12.46
2019-04-21T20:45:34.866Z,12.35
2019-04-21T20:47:25.716Z,12.37
2019-04-21T20:49:27.031Z,12.36
2019-04-21T20:51:32.542Z,12.28
2019-04-21T20:53:31.356Z,12.20
2019-04-21T20:55:26.517Z,12.17
2019-04-21T20:57:31.605Z,12.17
2019-04-21T20:59:28.648Z,12.17
2019-04-21T21:01:34.838Z,12.15
2019-04-21T21:03:37.717Z,12.14
2019-04-21T21:05:27.265Z,12.17
2019-04-21T21:07:44.091Z,11.99
2019-04-21T21:09:33.823Z,12.05
2019-04-21T21:11:29.501Z,11.94
2019-04-21T21:13:39.687Z,11.96
2019-04-21T21:15:30.317Z,11.97
2019-04-21T21:17:46.795Z,11.87
2019-04-21T21:19:34.717Z,11.86
2019-04-21T21:21:29.537Z,11.93
2019-04-21T21:23:37.121Z,11.80
2019-04-21T21:25:41.838Z,11.92
2019-04-21T21:27:33.759Z,11.95
2019-04-21T21:29:33.095Z,11.97
2019-04-21T21:31:38.662Z,11.94
2019-04-21T21:33:39.478Z,11.78
2019-04-21T21:35:32.469Z,11.81
2019-04-21T21:37:39.366Z,11.84
2019-04-21T21:39:40.729Z,11.67
2019-04-21T21:41:24.472Z,11.61
2019-04-21T21:43:19.865Z,11.69
2019-04-21T21:45:19.906Z,11.65
2019-04-21T21:47:31.886Z,11.54
2019-04-21T21:49:33.528Z,11.62
2019-04-21T21:51:29.057Z,11.49
2019-04-21T21:53:22.874Z,11.49
2019-04-21T21:55:16.221Z,11.55
2019-04-21T21:57:16.524Z,11.58
2019-04-21T21:59:21.875Z,11.44
2019-04-21T22:01:20.788Z,11.42
2019-04-21T22:03:23.323Z,11.46
2019-04-21T22:05:23.482Z,11.57
2019-04-21T22:07:19.468Z,11.39
2019-04-21T22:09:16.651Z,11.32
2019-04-21T22:11:16.021Z,11.32
2019-04-21T22:13:19.793Z,11.23
2019-04-21T22:15:22.217Z,11.07
2019-04-21T22:17:29.005Z,11.00
2019-04-21T22:19:29.978Z,10.94
2019-04-21T22:21:36.353Z,10.94
2019-04-21T22:23:32.355Z,10.92
2019-04-21T22:25:25.490Z,10.90
2019-04-21T22:27:17.028Z,10.87
2019-04-21T22:29:16.306Z,10.84
2019-04-21T22:31:21.161Z,10.75
2019-04-21T22:33:19.317Z,10.64
2019-04-21T22:35:28.582Z,10.60
2019-04-21T22:37:28.718Z,10.40
2019-04-21T22:39:35.014Z,10.32
2019-04-21T22:41:24.490Z,10.37
2019-04-21T22:43:21.673Z,10.27
2019-04-21T22:45:17.562Z,10.10
2019-04-21T22:47:20.629Z,10.23
2019-04-21T22:49:17.917Z,10.38
2019-04-21T22:51:26.042Z,10.33
2019-04-21T22:53:17.879Z,10.38
2019-04-21T22:55:20.875Z,10.45
2019-04-21T22:57:21.136Z,10.52
2019-04-21T22:59:20.567Z,10.49
2019-04-21T23:01:17.818Z,10.52
2019-04-21T23:03:22.455Z,10.35
2019-04-21T23:05:21.087Z,10.45
2019-04-21T23:07:19.392Z,10.40
2019-04-21T23:09:16.981Z,10.40
2019-04-21T23:11:17.966Z,10.50
2019-04-21T23:13:22.101Z,10.54
2019-04-21T23:15:20.520Z,10.65
2019-04-21T23:17:32.368Z,10.71
2019-04-21T23:19:34.797Z,10.62
2019-04-21T23:21:31.718Z,10.69
2019-04-21T23:23:37.086Z,10.63
2019-04-21T23:25:31.817Z,10.79
2019-04-21T23:27:34.339Z,10.89
2019-04-21T23:29:51.012Z,10.94
2019-04-21T23:31:34.413Z,11.03
2019-04-21T23:33:19.562Z,11.19
2019-04-21T23:35:21.784Z,11.11
2019-04-21T23:37:20.284Z,11.14
2019-04-21T23:39:24.315Z,11.06
2019-04-21T23:41:17.382Z,11.13
2019-04-21T23:43:20.667Z,11.10
2019-04-21T23:45:18.308Z,11.23
2019-04-21T23:47:29.304Z,11.15
2019-04-21T23:49:26.585Z,11.02
2019-04-21T23:51:32.421Z,11.05
2019-04-21T23:53:17.358Z,11.02
2019-04-21T23:55:17.055Z,11.06
2019-04-21T23:57:27.835Z,11.15
2019-04-21T23:59:18.014Z,11.04
